sensor_id;sensor_type;location;lat;lon;timestamp;P1;durP1;ratioP1;P2;durP2;ratioP2
49812;SDS011;35706;52.100;5.056;2024-02-21T00:00:24;20.00;;;1.08;;
49812;SDS011;35706;52.100;5.056;2024-02-21T00:01:25;14.00;;;1.23;;
49812;SDS011;35706;52.100;5.056;2024-02-21T00:02:25;14.88;;;0.95;;
49812;SDS011;35706;52.100;5.056;2024-02-21T00:03:25;17.55;;;1.85;;
49812;SDS011;35706;52.100;5.056;2024-02-21T00:04:26;14.13;;;0.90;;
49812;SDS011;35706;52.100;5.056;2024-02-21T00:05:26;13.30;;;1.02;;
49812;SDS011;35706;52.100;5.056;2024-02-21T00:06:27;14.15;;;1.35;;
49812;SDS011;35706;52.100;5.056;2024-02-21T00:07:27;16.38;;;0.75;;
49812;SDS011;35706;52.100;5.056;2024-02-21T00:08:27;17.55;;;0.80;;
49812;SDS011;35706;52.100;5.056;2024-02-21T00:09:28;21.85;;;1.23;;
49812;SDS011;35706;52.100;5.056;2024-02-21T00:10:28;17.30;;;1.42;;
49812;SDS011;35706;52.100;5.056;2024-02-21T00:11:29;18.25;;;0.90;;
49812;SDS011;35706;52.100;5.056;2024-02-21T00:12:29;20.20;;;0.98;;
49812;SDS011;35706;52.100;5.056;2024-02-21T00:13:29;24.52;;;1.10;;
49812;SDS011;35706;52.100;5.056;2024-02-21T00:14:30;15.05;;;1.05;;
49812;SDS011;35706;52.100;5.056;2024-02-21T00:15:30;19.05;;;0.90;;
49812;SDS011;35706;52.100;5.056;2024-02-21T00:16:31;13.52;;;1.00;;
49812;SDS011;35706;52.100;5.056;2024-02-21T00:17:31;15.88;;;0.82;;
49812;SDS011;35706;52.100;5.056;2024-02-21T00:18:31;16.65;;;1.27;;
49812;SDS011;35706;52.100;5.056;2024-02-21T00:19:32;14.35;;;0.77;;
49812;SDS011;35706;52.100;5.056;2024-02-21T00:20:32;18.67;;;0.73;;
49812;SDS011;35706;52.100;5.056;2024-02-21T00:21:32;18.45;;;1.10;;
49812;SDS011;35706;52.100;5.056;2024-02-21T00:22:33;9.98;;;0.90;;
49812;SDS011;35706;52.100;5.056;2024-02-21T00:23:33;16.42;;;1.13;;
49812;SDS011;35706;52.100;5.056;2024-02-21T00:24:34;17.48;;;1.25;;
49812;SDS011;35706;52.100;5.056;2024-02-21T00:25:34;18.65;;;0.93;;
49812;SDS011;35706;52.100;5.056;2024-02-21T00:26:34;13.52;;;1.10;;
49812;SDS011;35706;52.100;5.056;2024-02-21T00:27:34;19.83;;;1.10;;
49812;SDS011;35706;52.100;5.056;2024-02-21T00:28:35;12.50;;;1.02;;
49812;SDS011;35706;52.100;5.056;2024-02-21T00:29:35;14.82;;;1.40;;
49812;SDS011;35706;52.100;5.056;2024-02-21T00:30:36;9.75;;;0.80;;
49812;SDS011;35706;52.100;5.056;2024-02-21T00:31:38;20.65;;;1.15;;
49812;SDS011;35706;52.100;5.056;2024-02-21T00:32:38;15.52;;;0.80;;
49812;SDS011;35706;52.100;5.056;2024-02-21T00:33:39;15.40;;;1.00;;
49812;SDS011;35706;52.100;5.056;2024-02-21T00:34:39;20.98;;;1.23;;
49812;SDS011;35706;52.100;5.056;2024-02-21T00:35:39;14.05;;;1.17;;
49812;SDS011;35706;52.100;5.056;2024-02-21T00:36:40;12.48;;;0.80;;
49812;SDS011;35706;52.100;5.056;2024-02-21T00:37:40;16.15;;;1.00;;
49812;SDS011;35706;52.100;5.056;2024-02-21T00:38:40;23.30;;;1.65;;
49812;SDS011;35706;52.100;5.056;2024-02-21T00:39:41;16.00;;;1.02;;
49812;SDS011;35706;52.100;5.056;2024-02-21T00:40:42;14.48;;;1.17;;
49812;SDS011;35706;52.100;5.056;2024-02-21T00:41:42;14.15;;;1.27;;
49812;SDS011;35706;52.100;5.056;2024-02-21T00:42:43;15.18;;;0.90;;
49812;SDS011;35706;52.100;5.056;2024-02-21T00:43:43;9.32;;;0.90;;
49812;SDS011;35706;52.100;5.056;2024-02-21T00:44:44;20.58;;;1.80;;
49812;SDS011;35706;52.100;5.056;2024-02-21T00:45:44;17.98;;;2.00;;
49812;SDS011;35706;52.100;5.056;2024-02-21T00:46:44;16.45;;;2.30;;
49812;SDS011;35706;52.100;5.056;2024-02-21T00:47:46;11.05;;;0.90;;
49812;SDS011;35706;52.100;5.056;2024-02-21T00:48:46;16.98;;;0.90;;
49812;SDS011;35706;52.100;5.056;2024-02-21T00:49:47;17.80;;;1.05;;
49812;SDS011;35706;52.100;5.056;2024-02-21T00:50:47;11.88;;;0.82;;
49812;SDS011;35706;52.100;5.056;2024-02-21T00:51:47;12.60;;;1.00;;
49812;SDS011;35706;52.100;5.056;2024-02-21T00:52:48;11.73;;;1.08;;
49812;SDS011;35706;52.100;5.056;2024-02-21T00:53:49;19.73;;;1.00;;
49812;SDS011;35706;52.100;5.056;2024-02-21T00:54:51;15.77;;;0.90;;
49812;SDS011;35706;52.100;5.056;2024-02-21T00:55:52;16.40;;;1.58;;
49812;SDS011;35706;52.100;5.056;2024-02-21T00:56:52;19.33;;;0.90;;
49812;SDS011;35706;52.100;5.056;2024-02-21T00:57:52;20.52;;;1.30;;
49812;SDS011;35706;52.100;5.056;2024-02-21T00:58:53;19.55;;;0.95;;
49812;SDS011;35706;52.100;5.056;2024-02-21T00:59:53;21.80;;;1.30;;
49812;SDS011;35706;52.100;5.056;2024-02-21T01:00:53;14.80;;;0.85;;
49812;SDS011;35706;52.100;5.056;2024-02-21T01:01:54;9.23;;;0.93;;
49812;SDS011;35706;52.100;5.056;2024-02-21T01:02:54;18.40;;;1.85;;
49812;SDS011;35706;52.100;5.056;2024-02-21T01:03:54;11.20;;;1.30;;
49812;SDS011;35706;52.100;5.056;2024-02-21T01:04:55;12.07;;;1.35;;
49812;SDS011;35706;52.100;5.056;2024-02-21T01:05:55;17.23;;;1.10;;
49812;SDS011;35706;52.100;5.056;2024-02-21T01:06:56;21.50;;;1.95;;
49812;SDS011;35706;52.100;5.056;2024-02-21T01:07:56;10.38;;;1.00;;
49812;SDS011;35706;52.100;5.056;2024-02-21T01:08:56;15.38;;;1.10;;
49812;SDS011;35706;52.100;5.056;2024-02-21T01:10:06;17.45;;;1.27;;
49812;SDS011;35706;52.100;5.056;2024-02-21T01:11:12;12.50;;;1.20;;
49812;SDS011;35706;52.100;5.056;2024-02-21T01:12:13;22.42;;;1.92;;
49812;SDS011;35706;52.100;5.056;2024-02-21T01:13:13;19.80;;;1.40;;
49812;SDS011;35706;52.100;5.056;2024-02-21T01:14:14;20.88;;;1.85;;
49812;SDS011;35706;52.100;5.056;2024-02-21T01:15:14;18.77;;;1.67;;
49812;SDS011;35706;52.100;5.056;2024-02-21T01:16:14;19.13;;;1.17;;
49812;SDS011;35706;52.100;5.056;2024-02-21T01:17:15;12.25;;;1.38;;
49812;SDS011;35706;52.100;5.056;2024-02-21T01:18:15;17.35;;;1.52;;
49812;SDS011;35706;52.100;5.056;2024-02-21T01:19:15;19.40;;;1.27;;
49812;SDS011;35706;52.100;5.056;2024-02-21T01:20:16;15.60;;;1.95;;
49812;SDS011;35706;52.100;5.056;2024-02-21T01:21:17;17.75;;;1.42;;
49812;SDS011;35706;52.100;5.056;2024-02-21T01:22:17;16.75;;;2.28;;
49812;SDS011;35706;52.100;5.056;2024-02-21T01:23:18;24.05;;;1.75;;
49812;SDS011;35706;52.100;5.056;2024-02-21T01:24:18;15.88;;;1.73;;
49812;SDS011;35706;52.100;5.056;2024-02-21T01:25:18;14.77;;;1.45;;
49812;SDS011;35706;52.100;5.056;2024-02-21T01:26:19;17.55;;;1.70;;
49812;SDS011;35706;52.100;5.056;2024-02-21T01:27:19;15.52;;;1.58;;
49812;SDS011;35706;52.100;5.056;2024-02-21T01:28:19;16.73;;;1.92;;
49812;SDS011;35706;52.100;5.056;2024-02-21T01:29:20;18.52;;;1.70;;
49812;SDS011;35706;52.100;5.056;2024-02-21T01:30:20;19.60;;;1.50;;
49812;SDS011;35706;52.100;5.056;2024-02-21T01:31:20;27.33;;;2.83;;
49812;SDS011;35706;52.100;5.056;2024-02-21T01:32:21;19.40;;;1.48;;
49812;SDS011;35706;52.100;5.056;2024-02-21T01:33:24;15.57;;;2.15;;
49812;SDS011;35706;52.100;5.056;2024-02-21T01:34:24;25.65;;;2.80;;
49812;SDS011;35706;52.100;5.056;2024-02-21T01:35:24;20.02;;;2.15;;
49812;SDS011;35706;52.100;5.056;2024-02-21T01:36:25;20.35;;;1.88;;
49812;SDS011;35706;52.100;5.056;2024-02-21T01:37:25;17.77;;;1.63;;
49812;SDS011;35706;52.100;5.056;2024-02-21T01:38:26;13.23;;;1.70;;
49812;SDS011;35706;52.100;5.056;2024-02-21T01:39:26;15.48;;;2.17;;
49812;SDS011;35706;52.100;5.056;2024-02-21T01:40:26;17.30;;;2.75;;
49812;SDS011;35706;52.100;5.056;2024-02-21T01:41:29;21.48;;;2.38;;
49812;SDS011;35706;52.100;5.056;2024-02-21T01:42:30;14.18;;;2.67;;
49812;SDS011;35706;52.100;5.056;2024-02-21T01:43:30;15.45;;;2.40;;
49812;SDS011;35706;52.100;5.056;2024-02-21T01:44:31;21.48;;;2.50;;
49812;SDS011;35706;52.100;5.056;2024-02-21T01:45:31;18.55;;;2.88;;
49812;SDS011;35706;52.100;5.056;2024-02-21T01:46:32;17.90;;;2.08;;
49812;SDS011;35706;52.100;5.056;2024-02-21T01:47:32;15.77;;;2.35;;
49812;SDS011;35706;52.100;5.056;2024-02-21T01:48:33;22.77;;;2.47;;
49812;SDS011;35706;52.100;5.056;2024-02-21T01:49:34;21.70;;;3.38;;
49812;SDS011;35706;52.100;5.056;2024-02-21T01:50:35;18.02;;;2.60;;
49812;SDS011;35706;52.100;5.056;2024-02-21T01:51:36;16.38;;;2.45;;
49812;SDS011;35706;52.100;5.056;2024-02-21T01:52:37;25.35;;;3.45;;
49812;SDS011;35706;52.100;5.056;2024-02-21T01:53:38;18.48;;;3.10;;
49812;SDS011;35706;52.100;5.056;2024-02-21T01:54:43;14.77;;;2.22;;
49812;SDS011;35706;52.100;5.056;2024-02-21T01:55:45;15.82;;;2.20;;
49812;SDS011;35706;52.100;5.056;2024-02-21T01:56:46;13.90;;;2.30;;
49812;SDS011;35706;52.100;5.056;2024-02-21T01:57:47;24.90;;;2.42;;
49812;SDS011;35706;52.100;5.056;2024-02-21T01:58:47;11.05;;;1.90;;
49812;SDS011;35706;52.100;5.056;2024-02-21T01:59:49;13.45;;;2.40;;
49812;SDS011;35706;52.100;5.056;2024-02-21T02:00:50;19.30;;;3.38;;
49812;SDS011;35706;52.100;5.056;2024-02-21T02:01:51;16.98;;;2.17;;
49812;SDS011;35706;52.100;5.056;2024-02-21T02:02:52;13.00;;;2.92;;
49812;SDS011;35706;52.100;5.056;2024-02-21T02:03:54;13.73;;;2.45;;
49812;SDS011;35706;52.100;5.056;2024-02-21T02:04:55;18.15;;;2.85;;
49812;SDS011;35706;52.100;5.056;2024-02-21T02:05:56;20.63;;;2.60;;
49812;SDS011;35706;52.100;5.056;2024-02-21T02:06:57;12.98;;;2.05;;
49812;SDS011;35706;52.100;5.056;2024-02-21T02:08:01;18.05;;;2.17;;
49812;SDS011;35706;52.100;5.056;2024-02-21T02:09:01;15.13;;;2.40;;
49812;SDS011;35706;52.100;5.056;2024-02-21T02:10:02;16.17;;;2.15;;
49812;SDS011;35706;52.100;5.056;2024-02-21T02:11:02;14.95;;;3.22;;
49812;SDS011;35706;52.100;5.056;2024-02-21T02:12:03;13.82;;;3.13;;
49812;SDS011;35706;52.100;5.056;2024-02-21T02:13:04;18.27;;;2.33;;
49812;SDS011;35706;52.100;5.056;2024-02-21T02:14:04;14.55;;;2.65;;
49812;SDS011;35706;52.100;5.056;2024-02-21T02:15:05;16.13;;;3.20;;
49812;SDS011;35706;52.100;5.056;2024-02-21T02:16:05;18.33;;;3.05;;
49812;SDS011;35706;52.100;5.056;2024-02-21T02:17:09;20.83;;;3.03;;
49812;SDS011;35706;52.100;5.056;2024-02-21T02:18:10;15.52;;;2.70;;
49812;SDS011;35706;52.100;5.056;2024-02-21T02:19:11;13.57;;;2.10;;
49812;SDS011;35706;52.100;5.056;2024-02-21T02:20:13;20.27;;;3.05;;
49812;SDS011;35706;52.100;5.056;2024-02-21T02:21:21;19.98;;;2.40;;
49812;SDS011;35706;52.100;5.056;2024-02-21T02:22:30;28.60;;;3.17;;
49812;SDS011;35706;52.100;5.056;2024-02-21T02:23:32;22.70;;;3.15;;
49812;SDS011;35706;52.100;5.056;2024-02-21T02:24:33;13.82;;;3.00;;
49812;SDS011;35706;52.100;5.056;2024-02-21T02:25:34;18.90;;;3.13;;
49812;SDS011;35706;52.100;5.056;2024-02-21T02:26:35;17.90;;;2.90;;
49812;SDS011;35706;52.100;5.056;2024-02-21T02:27:42;15.95;;;2.75;;
49812;SDS011;35706;52.100;5.056;2024-02-21T02:28:44;17.48;;;2.90;;
49812;SDS011;35706;52.100;5.056;2024-02-21T02:29:44;17.20;;;2.92;;
49812;SDS011;35706;52.100;5.056;2024-02-21T02:30:45;15.13;;;2.60;;
49812;SDS011;35706;52.100;5.056;2024-02-21T02:31:45;21.27;;;4.00;;
49812;SDS011;35706;52.100;5.056;2024-02-21T02:32:45;22.40;;;3.90;;
49812;SDS011;35706;52.100;5.056;2024-02-21T02:33:46;19.38;;;3.53;;
49812;SDS011;35706;52.100;5.056;2024-02-21T02:34:48;19.05;;;3.63;;
49812;SDS011;35706;52.100;5.056;2024-02-21T02:35:48;18.23;;;3.85;;
49812;SDS011;35706;52.100;5.056;2024-02-21T02:36:48;16.42;;;2.65;;
49812;SDS011;35706;52.100;5.056;2024-02-21T02:37:49;19.30;;;3.70;;
49812;SDS011;35706;52.100;5.056;2024-02-21T02:38:50;13.02;;;2.65;;
49812;SDS011;35706;52.100;5.056;2024-02-21T02:39:50;14.57;;;3.40;;
49812;SDS011;35706;52.100;5.056;2024-02-21T02:40:51;18.00;;;3.50;;
49812;SDS011;35706;52.100;5.056;2024-02-21T02:41:51;16.27;;;3.22;;
49812;SDS011;35706;52.100;5.056;2024-02-21T02:42:51;19.25;;;4.72;;
49812;SDS011;35706;52.100;5.056;2024-02-21T02:43:54;19.80;;;3.70;;
49812;SDS011;35706;52.100;5.056;2024-02-21T02:44:55;20.80;;;3.80;;
49812;SDS011;35706;52.100;5.056;2024-02-21T02:45:57;30.17;;;4.03;;
49812;SDS011;35706;52.100;5.056;2024-02-21T02:46:57;15.13;;;3.50;;
49812;SDS011;35706;52.100;5.056;2024-02-21T02:47:58;16.33;;;3.38;;
49812;SDS011;35706;52.100;5.056;2024-02-21T02:48:59;24.45;;;4.13;;
49812;SDS011;35706;52.100;5.056;2024-02-21T02:49:59;19.17;;;3.78;;
49812;SDS011;35706;52.100;5.056;2024-02-21T02:50:59;14.48;;;3.60;;
49812;SDS011;35706;52.100;5.056;2024-02-21T02:51:59;21.77;;;3.60;;
49812;SDS011;35706;52.100;5.056;2024-02-21T02:53:00;15.80;;;3.38;;
49812;SDS011;35706;52.100;5.056;2024-02-21T02:54:00;17.70;;;3.72;;
49812;SDS011;35706;52.100;5.056;2024-02-21T02:55:00;20.00;;;3.55;;
49812;SDS011;35706;52.100;5.056;2024-02-21T02:56:02;18.58;;;3.85;;
49812;SDS011;35706;52.100;5.056;2024-02-21T02:57:02;18.63;;;4.20;;
49812;SDS011;35706;52.100;5.056;2024-02-21T02:58:04;19.92;;;5.13;;
49812;SDS011;35706;52.100;5.056;2024-02-21T02:59:04;19.05;;;5.00;;
49812;SDS011;35706;52.100;5.056;2024-02-21T03:00:05;23.90;;;3.78;;
49812;SDS011;35706;52.100;5.056;2024-02-21T03:01:07;16.95;;;3.65;;
49812;SDS011;35706;52.100;5.056;2024-02-21T03:02:07;19.80;;;4.68;;
49812;SDS011;35706;52.100;5.056;2024-02-21T03:03:07;18.67;;;4.18;;
49812;SDS011;35706;52.100;5.056;2024-02-21T03:04:08;27.88;;;3.88;;
49812;SDS011;35706;52.100;5.056;2024-02-21T03:05:11;21.08;;;4.18;;
49812;SDS011;35706;52.100;5.056;2024-02-21T03:06:14;21.52;;;4.13;;
49812;SDS011;35706;52.100;5.056;2024-02-21T03:07:15;16.58;;;4.22;;
49812;SDS011;35706;52.100;5.056;2024-02-21T03:08:15;26.77;;;4.65;;
49812;SDS011;35706;52.100;5.056;2024-02-21T03:09:16;15.02;;;4.18;;
49812;SDS011;35706;52.100;5.056;2024-02-21T03:10:17;19.17;;;4.85;;
49812;SDS011;35706;52.100;5.056;2024-02-21T03:11:17;21.63;;;4.88;;
49812;SDS011;35706;52.100;5.056;2024-02-21T03:12:18;22.65;;;4.57;;
49812;SDS011;35706;52.100;5.056;2024-02-21T03:13:24;19.23;;;4.05;;
49812;SDS011;35706;52.100;5.056;2024-02-21T03:14:25;19.38;;;4.70;;
49812;SDS011;35706;52.100;5.056;2024-02-21T03:15:25;17.85;;;4.55;;
49812;SDS011;35706;52.100;5.056;2024-02-21T03:16:25;14.80;;;4.68;;
49812;SDS011;35706;52.100;5.056;2024-02-21T03:17:26;16.75;;;3.90;;
49812;SDS011;35706;52.100;5.056;2024-02-21T03:18:29;16.13;;;4.15;;
49812;SDS011;35706;52.100;5.056;2024-02-21T03:19:29;16.92;;;4.13;;
49812;SDS011;35706;52.100;5.056;2024-02-21T03:20:30;15.45;;;4.55;;
49812;SDS011;35706;52.100;5.056;2024-02-21T03:21:30;16.30;;;4.75;;
49812;SDS011;35706;52.100;5.056;2024-02-21T03:22:33;15.15;;;4.18;;
49812;SDS011;35706;52.100;5.056;2024-02-21T03:23:33;22.10;;;4.90;;
49812;SDS011;35706;52.100;5.056;2024-02-21T03:24:34;17.33;;;5.22;;
49812;SDS011;35706;52.100;5.056;2024-02-21T03:25:34;18.50;;;5.15;;
49812;SDS011;35706;52.100;5.056;2024-02-21T03:26:34;22.88;;;5.18;;
49812;SDS011;35706;52.100;5.056;2024-02-21T03:27:35;20.15;;;4.75;;
49812;SDS011;35706;52.100;5.056;2024-02-21T03:28:35;23.55;;;4.75;;
49812;SDS011;35706;52.100;5.056;2024-02-21T03:29:35;18.75;;;4.18;;
49812;SDS011;35706;52.100;5.056;2024-02-21T03:30:36;20.33;;;4.20;;
49812;SDS011;35706;52.100;5.056;2024-02-21T03:31:36;18.00;;;4.35;;
49812;SDS011;35706;52.100;5.056;2024-02-21T03:32:37;23.23;;;4.20;;
49812;SDS011;35706;52.100;5.056;2024-02-21T03:33:39;15.32;;;4.45;;
49812;SDS011;35706;52.100;5.056;2024-02-21T03:34:42;21.02;;;4.75;;
49812;SDS011;35706;52.100;5.056;2024-02-21T03:35:42;18.90;;;4.40;;
49812;SDS011;35706;52.100;5.056;2024-02-21T03:36:42;25.33;;;4.55;;
49812;SDS011;35706;52.100;5.056;2024-02-21T03:37:44;11.48;;;4.47;;
49812;SDS011;35706;52.100;5.056;2024-02-21T03:38:45;18.58;;;3.95;;
49812;SDS011;35706;52.100;5.056;2024-02-21T03:39:45;14.57;;;4.15;;
49812;SDS011;35706;52.100;5.056;2024-02-21T03:40:46;16.77;;;3.83;;
49812;SDS011;35706;52.100;5.056;2024-02-21T03:41:46;18.50;;;4.25;;
49812;SDS011;35706;52.100;5.056;2024-02-21T03:42:47;17.55;;;4.35;;
49812;SDS011;35706;52.100;5.056;2024-02-21T03:43:47;16.65;;;3.85;;
49812;SDS011;35706;52.100;5.056;2024-02-21T03:44:47;19.05;;;4.97;;
49812;SDS011;35706;52.100;5.056;2024-02-21T03:45:48;16.90;;;4.38;;
49812;SDS011;35706;52.100;5.056;2024-02-21T03:46:48;17.58;;;5.15;;
49812;SDS011;35706;52.100;5.056;2024-02-21T03:47:48;13.10;;;5.22;;
49812;SDS011;35706;52.100;5.056;2024-02-21T03:48:49;12.52;;;5.00;;
49812;SDS011;35706;52.100;5.056;2024-02-21T03:49:49;16.65;;;5.18;;
49812;SDS011;35706;52.100;5.056;2024-02-21T03:50:51;19.92;;;4.40;;
49812;SDS011;35706;52.100;5.056;2024-02-21T03:51:51;18.50;;;4.10;;
49812;SDS011;35706;52.100;5.056;2024-02-21T03:52:52;16.70;;;4.72;;
49812;SDS011;35706;52.100;5.056;2024-02-21T03:55:49;15.80;;;3.97;;
49812;SDS011;35706;52.100;5.056;2024-02-21T03:56:49;16.05;;;3.63;;
49812;SDS011;35706;52.100;5.056;2024-02-21T03:57:50;19.67;;;4.22;;
49812;SDS011;35706;52.100;5.056;2024-02-21T03:58:50;22.85;;;3.78;;
49812;SDS011;35706;52.100;5.056;2024-02-21T03:59:50;11.07;;;3.33;;
49812;SDS011;35706;52.100;5.056;2024-02-21T04:00:52;26.35;;;3.85;;
49812;SDS011;35706;52.100;5.056;2024-02-21T04:01:52;17.95;;;2.95;;
49812;SDS011;35706;52.100;5.056;2024-02-21T04:02:53;13.13;;;3.72;;
49812;SDS011;35706;52.100;5.056;2024-02-21T04:03:53;15.75;;;2.97;;
49812;SDS011;35706;52.100;5.056;2024-02-21T04:04:53;9.50;;;3.10;;
49812;SDS011;35706;52.100;5.056;2024-02-21T04:05:54;10.80;;;3.15;;
49812;SDS011;35706;52.100;5.056;2024-02-21T04:06:54;14.52;;;2.67;;
49812;SDS011;35706;52.100;5.056;2024-02-21T04:07:55;12.45;;;2.70;;
49812;SDS011;35706;52.100;5.056;2024-02-21T04:08:55;7.40;;;2.22;;
49812;SDS011;35706;52.100;5.056;2024-02-21T04:09:56;11.95;;;2.03;;
49812;SDS011;35706;52.100;5.056;2024-02-21T04:10:56;10.15;;;2.97;;
49812;SDS011;35706;52.100;5.056;2024-02-21T04:11:57;22.65;;;2.83;;
49812;SDS011;35706;52.100;5.056;2024-02-21T04:12:57;9.10;;;1.98;;
49812;SDS011;35706;52.100;5.056;2024-02-21T04:13:57;9.40;;;2.30;;
49812;SDS011;35706;52.100;5.056;2024-02-21T04:14:58;10.85;;;3.15;;
49812;SDS011;35706;52.100;5.056;2024-02-21T04:15:58;11.95;;;2.55;;
49812;SDS011;35706;52.100;5.056;2024-02-21T04:16:58;15.02;;;2.40;;
49812;SDS011;35706;52.100;5.056;2024-02-21T04:17:58;12.55;;;2.10;;
49812;SDS011;35706;52.100;5.056;2024-02-21T04:18:59;11.00;;;2.55;;
49812;SDS011;35706;52.100;5.056;2024-02-21T04:20:03;11.25;;;2.55;;
49812;SDS011;35706;52.100;5.056;2024-02-21T04:21:05;11.07;;;2.25;;
49812;SDS011;35706;52.100;5.056;2024-02-21T04:22:05;13.45;;;2.55;;
49812;SDS011;35706;52.100;5.056;2024-02-21T04:23:06;13.80;;;2.35;;
49812;SDS011;35706;52.100;5.056;2024-02-21T04:24:06;15.38;;;2.38;;
49812;SDS011;35706;52.100;5.056;2024-02-21T04:25:06;11.63;;;2.38;;
49812;SDS011;35706;52.100;5.056;2024-02-21T04:26:07;7.47;;;2.45;;
49812;SDS011;35706;52.100;5.056;2024-02-21T04:27:08;11.80;;;2.67;;
49812;SDS011;35706;52.100;5.056;2024-02-21T04:28:08;17.33;;;3.42;;
49812;SDS011;35706;52.100;5.056;2024-02-21T04:29:08;13.48;;;2.78;;
49812;SDS011;35706;52.100;5.056;2024-02-21T04:30:09;11.48;;;3.08;;
49812;SDS011;35706;52.100;5.056;2024-02-21T04:31:09;14.35;;;3.53;;
49812;SDS011;35706;52.100;5.056;2024-02-21T04:32:09;16.20;;;3.30;;
49812;SDS011;35706;52.100;5.056;2024-02-21T04:33:10;11.73;;;2.75;;
49812;SDS011;35706;52.100;5.056;2024-02-21T04:34:10;15.73;;;2.90;;
49812;SDS011;35706;52.100;5.056;2024-02-21T04:35:11;13.93;;;3.50;;
49812;SDS011;35706;52.100;5.056;2024-02-21T04:36:11;10.77;;;2.83;;
49812;SDS011;35706;52.100;5.056;2024-02-21T04:37:11;14.25;;;3.10;;
49812;SDS011;35706;52.100;5.056;2024-02-21T04:38:12;14.63;;;3.58;;
49812;SDS011;35706;52.100;5.056;2024-02-21T04:39:12;13.50;;;3.47;;
49812;SDS011;35706;52.100;5.056;2024-02-21T04:40:12;15.98;;;3.65;;
49812;SDS011;35706;52.100;5.056;2024-02-21T04:41:14;9.75;;;3.03;;
49812;SDS011;35706;52.100;5.056;2024-02-21T04:42:14;13.50;;;3.60;;
49812;SDS011;35706;52.100;5.056;2024-02-21T04:43:15;13.48;;;3.20;;
49812;SDS011;35706;52.100;5.056;2024-02-21T04:44:15;12.13;;;3.72;;
49812;SDS011;35706;52.100;5.056;2024-02-21T04:45:16;10.73;;;3.92;;
49812;SDS011;35706;52.100;5.056;2024-02-21T04:46:16;10.23;;;3.55;;
49812;SDS011;35706;52.100;5.056;2024-02-21T04:47:16;9.15;;;3.30;;
49812;SDS011;35706;52.100;5.056;2024-02-21T04:48:17;11.20;;;4.32;;
49812;SDS011;35706;52.100;5.056;2024-02-21T04:49:17;9.63;;;3.42;;
49812;SDS011;35706;52.100;5.056;2024-02-21T04:50:18;14.35;;;3.85;;
49812;SDS011;35706;52.100;5.056;2024-02-21T04:51:18;14.60;;;4.55;;
49812;SDS011;35706;52.100;5.056;2024-02-21T04:52:18;11.77;;;4.53;;
49812;SDS011;35706;52.100;5.056;2024-02-21T04:53:18;10.50;;;5.05;;
49812;SDS011;35706;52.100;5.056;2024-02-21T04:54:19;15.32;;;4.50;;
49812;SDS011;35706;52.100;5.056;2024-02-21T04:55:19;11.45;;;4.40;;
49812;SDS011;35706;52.100;5.056;2024-02-21T04:56:19;17.83;;;5.15;;
49812;SDS011;35706;52.100;5.056;2024-02-21T04:57:20;13.02;;;4.75;;
49812;SDS011;35706;52.100;5.056;2024-02-21T04:58:20;17.75;;;5.13;;
49812;SDS011;35706;52.100;5.056;2024-02-21T04:59:20;13.23;;;5.22;;
49812;SDS011;35706;52.100;5.056;2024-02-21T05:00:21;14.75;;;4.68;;
49812;SDS011;35706;52.100;5.056;2024-02-21T05:01:21;13.85;;;5.35;;
49812;SDS011;35706;52.100;5.056;2024-02-21T05:02:21;13.45;;;5.32;;
49812;SDS011;35706;52.100;5.056;2024-02-21T05:03:24;12.23;;;5.22;;
49812;SDS011;35706;52.100;5.056;2024-02-21T05:04:24;15.35;;;5.43;;
49812;SDS011;35706;52.100;5.056;2024-02-21T05:05:24;14.45;;;6.45;;
49812;SDS011;35706;52.100;5.056;2024-02-21T05:06:25;14.57;;;5.30;;
49812;SDS011;35706;52.100;5.056;2024-02-21T05:07:25;13.35;;;5.63;;
49812;SDS011;35706;52.100;5.056;2024-02-21T05:08:25;15.32;;;5.85;;
49812;SDS011;35706;52.100;5.056;2024-02-21T05:09:26;14.70;;;5.47;;
49812;SDS011;35706;52.100;5.056;2024-02-21T05:10:26;11.98;;;6.70;;
49812;SDS011;35706;52.100;5.056;2024-02-21T05:11:26;12.32;;;5.20;;
49812;SDS011;35706;52.100;5.056;2024-02-21T05:12:26;14.07;;;5.88;;
49812;SDS011;35706;52.100;5.056;2024-02-21T05:13:27;16.33;;;6.65;;
49812;SDS011;35706;52.100;5.056;2024-02-21T05:14:27;11.80;;;5.97;;
49812;SDS011;35706;52.100;5.056;2024-02-21T05:15:27;11.48;;;4.97;;
49812;SDS011;35706;52.100;5.056;2024-02-21T05:16:28;14.30;;;5.90;;
49812;SDS011;35706;52.100;5.056;2024-02-21T05:17:28;14.77;;;5.95;;
49812;SDS011;35706;52.100;5.056;2024-02-21T05:18:28;15.57;;;6.00;;
49812;SDS011;35706;52.100;5.056;2024-02-21T05:19:29;12.85;;;5.60;;
49812;SDS011;35706;52.100;5.056;2024-02-21T05:20:29;14.20;;;6.28;;
49812;SDS011;35706;52.100;5.056;2024-02-21T05:21:29;17.13;;;7.45;;
49812;SDS011;35706;52.100;5.056;2024-02-21T05:22:29;12.70;;;6.65;;
49812;SDS011;35706;52.100;5.056;2024-02-21T05:23:30;15.95;;;6.72;;
49812;SDS011;35706;52.100;5.056;2024-02-21T05:24:30;11.98;;;6.85;;
49812;SDS011;35706;52.100;5.056;2024-02-21T05:25:30;16.38;;;6.80;;
49812;SDS011;35706;52.100;5.056;2024-02-21T05:26:31;12.95;;;6.68;;
49812;SDS011;35706;52.100;5.056;2024-02-21T05:27:31;14.85;;;6.97;;
49812;SDS011;35706;52.100;5.056;2024-02-21T05:28:31;15.10;;;6.18;;
49812;SDS011;35706;52.100;5.056;2024-02-21T05:29:32;16.50;;;7.60;;
49812;SDS011;35706;52.100;5.056;2024-02-21T05:30:33;14.50;;;6.78;;
49812;SDS011;35706;52.100;5.056;2024-02-21T05:31:54;13.48;;;6.93;;
49812;SDS011;35706;52.100;5.056;2024-02-21T05:32:56;16.88;;;7.55;;
49812;SDS011;35706;52.100;5.056;2024-02-21T05:33:56;18.50;;;7.18;;
49812;SDS011;35706;52.100;5.056;2024-02-21T05:34:57;18.58;;;6.88;;
49812;SDS011;35706;52.100;5.056;2024-02-21T05:35:58;14.43;;;7.35;;
49812;SDS011;35706;52.100;5.056;2024-02-21T05:36:58;15.77;;;6.65;;
49812;SDS011;35706;52.100;5.056;2024-02-21T05:38:00;18.45;;;7.68;;
49812;SDS011;35706;52.100;5.056;2024-02-21T05:39:00;14.65;;;6.95;;
49812;SDS011;35706;52.100;5.056;2024-02-21T05:40:02;20.13;;;7.75;;
49812;SDS011;35706;52.100;5.056;2024-02-21T05:41:03;19.35;;;7.20;;
49812;SDS011;35706;52.100;5.056;2024-02-21T05:42:03;17.90;;;7.75;;
49812;SDS011;35706;52.100;5.056;2024-02-21T05:43:04;14.98;;;7.07;;
49812;SDS011;35706;52.100;5.056;2024-02-21T05:44:04;22.27;;;7.13;;
49812;SDS011;35706;52.100;5.056;2024-02-21T05:45:05;19.00;;;7.00;;
49812;SDS011;35706;52.100;5.056;2024-02-21T05:46:05;14.55;;;7.03;;
49812;SDS011;35706;52.100;5.056;2024-02-21T05:47:05;12.52;;;7.15;;
49812;SDS011;35706;52.100;5.056;2024-02-21T05:48:09;16.73;;;7.25;;
49812;SDS011;35706;52.100;5.056;2024-02-21T05:49:10;10.93;;;6.13;;
49812;SDS011;35706;52.100;5.056;2024-02-21T05:50:10;13.13;;;7.32;;
49812;SDS011;35706;52.100;5.056;2024-02-21T05:51:11;15.60;;;6.32;;
49812;SDS011;35706;52.100;5.056;2024-02-21T05:52:11;18.70;;;6.35;;
49812;SDS011;35706;52.100;5.056;2024-02-21T05:53:11;12.02;;;6.60;;
49812;SDS011;35706;52.100;5.056;2024-02-21T05:54:12;18.33;;;6.80;;
49812;SDS011;35706;52.100;5.056;2024-02-21T05:55:12;13.63;;;6.45;;
49812;SDS011;35706;52.100;5.056;2024-02-21T05:56:13;11.70;;;6.03;;
49812;SDS011;35706;52.100;5.056;2024-02-21T05:57:14;10.82;;;6.50;;
49812;SDS011;35706;52.100;5.056;2024-02-21T05:58:14;17.80;;;7.03;;
49812;SDS011;35706;52.100;5.056;2024-02-21T05:59:14;17.85;;;7.05;;
49812;SDS011;35706;52.100;5.056;2024-02-21T06:00:15;17.27;;;7.05;;
49812;SDS011;35706;52.100;5.056;2024-02-21T06:01:15;16.58;;;7.38;;
49812;SDS011;35706;52.100;5.056;2024-02-21T06:02:15;16.02;;;7.85;;
49812;SDS011;35706;52.100;5.056;2024-02-21T06:03:16;17.85;;;7.15;;